Terminal Aerodrome Forecast
Issued by NWS Wichita, KS

Home | Current Version | Previous Version | Text Only | Print | Product List | Glossary On
Versions: 1 2 3 4 5 6 7 8 9 10 11 12 13 14 15 16
334
FTUS43 KICT 261720
TAFICT
TAF
KICT 261720Z 2618/2718 34015G23KT P6SM BKN025
      TEMPO 2620/2624 SCT025
     FM270000 33008KT P6SM SCT200
     FM270200 32004KT P6SM FEW250
     FM271400 15004KT P6SM BKN140=

USA.gov is the U.S. government's official web portal to all federal, state and local government web resources and services.